createdAt,value
2023-03-10T00:00:23.752Z,32.84
2023-03-10T00:01:23.859Z,32.85
2023-03-10T00:02:23.956Z,32.80
2023-03-10T00:03:24.076Z,32.81
2023-03-10T00:04:24.239Z,32.85
2023-03-10T00:05:24.345Z,32.82
2023-03-10T00:06:24.421Z,32.82
2023-03-10T00:07:24.517Z,32.76
2023-03-10T00:08:27.063Z,32.84
2023-03-10T00:09:24.822Z,32.80
2023-03-10T00:10:24.919Z,32.78
2023-03-10T00:11:25.040Z,32.82
2023-03-10T00:12:25.149Z,32.76
2023-03-10T00:13:25.263Z,32.80
2023-03-10T00:14:25.408Z,32.77
2023-03-10T00:15:25.535Z,32.75
2023-03-10T00:16:25.600Z,32.70
2023-03-10T00:17:25.709Z,32.79
2023-03-10T00:18:25.816Z,32.76
2023-03-10T00:19:25.907Z,32.77
2023-03-10T00:20:26.015Z,32.73
2023-03-10T00:21:26.128Z,32.75
2023-03-10T00:22:26.239Z,32.79
2023-03-10T00:23:26.341Z,32.78
2023-03-10T00:24:26.442Z,32.80
2023-03-10T00:25:26.529Z,32.71
2023-03-10T00:26:26.621Z,32.70
2023-03-10T00:27:26.703Z,32.73
2023-03-10T00:28:26.786Z,32.70
2023-03-10T00:29:26.874Z,32.73
2023-03-10T00:30:26.971Z,32.70
2023-03-10T00:31:27.085Z,32.72
2023-03-10T00:32:27.169Z,32.66
2023-03-10T00:33:27.225Z,32.73
2023-03-10T00:34:27.338Z,32.69
2023-03-10T00:35:27.425Z,32.68
2023-03-10T00:36:27.570Z,32.73
2023-03-10T00:37:27.613Z,32.69
2023-03-10T00:38:27.706Z,32.72
2023-03-10T00:39:27.813Z,32.66
2023-03-10T00:40:27.876Z,32.67
2023-03-10T00:41:27.974Z,32.64
2023-03-10T00:42:28.069Z,32.70
2023-03-10T00:43:28.145Z,32.61
2023-03-10T00:44:28.230Z,32.67
2023-03-10T00:45:28.331Z,32.61
2023-03-10T00:46:28.481Z,32.64
2023-03-10T00:47:28.585Z,32.71
2023-03-10T00:48:28.635Z,32.67
2023-03-10T00:49:28.751Z,32.69
2023-03-10T00:50:28.856Z,32.63
2023-03-10T00:51:28.943Z,32.63
2023-03-10T00:52:29.049Z,32.66
2023-03-10T00:53:29.139Z,32.64
2023-03-10T00:54:29.238Z,32.62
2023-03-10T00:55:29.319Z,32.65
2023-03-10T00:56:29.455Z,32.64
2023-03-10T00:57:29.528Z,32.67
2023-03-10T00:58:29.739Z,32.65
2023-03-10T00:59:40.501Z,32.64
2023-03-10T01:01:29.888Z,32.64
2023-03-10T01:02:29.856Z,32.63
2023-03-10T01:03:29.896Z,32.58
2023-03-10T01:04:30.003Z,32.58
2023-03-10T01:05:30.004Z,32.60
2023-03-10T01:06:30.030Z,32.57
2023-03-10T01:07:30.068Z,32.57
2023-03-10T01:08:30.107Z,32.61
2023-03-10T01:09:30.153Z,32.54
2023-03-10T01:10:30.258Z,32.55
2023-03-10T01:11:30.372Z,32.63
2023-03-10T01:12:30.483Z,32.55
2023-03-10T01:13:30.612Z,32.49
2023-03-10T01:14:30.676Z,32.51
2023-03-10T01:15:30.789Z,32.55
2023-03-10T01:16:30.978Z,32.51
2023-03-10T01:17:30.991Z,32.51
2023-03-10T01:18:31.087Z,32.44
2023-03-10T01:19:31.210Z,32.51
2023-03-10T01:20:31.322Z,32.60
2023-03-10T01:21:31.441Z,32.48
2023-03-10T01:22:31.555Z,32.53
2023-03-10T01:23:31.681Z,32.53
2023-03-10T01:24:31.780Z,32.55
2023-03-10T01:25:31.899Z,32.51
2023-03-10T01:26:31.992Z,32.49
2023-03-10T01:27:32.110Z,32.54
2023-03-10T01:28:32.219Z,32.52
2023-03-10T01:29:32.334Z,32.46
2023-03-10T01:30:32.448Z,32.46
2023-03-10T01:31:32.623Z,32.48
2023-03-10T01:32:32.761Z,32.52
2023-03-10T01:33:32.802Z,32.53
2023-03-10T01:34:32.909Z,32.48
2023-03-10T01:35:33.078Z,32.49
2023-03-10T01:36:33.160Z,32.49
2023-03-10T01:41:33.673Z,32.51
2023-03-10T02:48:40.952Z,32.25
2023-03-10T02:49:41.064Z,32.22
2023-03-10T02:50:41.192Z,32.21
2023-03-10T02:51:41.304Z,32.22
2023-03-10T02:52:41.413Z,32.18
2023-03-10T02:53:41.632Z,32.24
2023-03-10T02:54:41.630Z,32.19
2023-03-10T02:55:41.757Z,32.15
2023-03-10T04:16:51.010Z,31.88
2023-03-10T04:17:51.124Z,31.83
2023-03-10T04:18:51.233Z,31.82
2023-03-10T04:20:51.443Z,31.80
2023-03-10T06:00:01.076Z,31.10
2023-03-10T06:02:01.022Z,31.11
2023-03-10T06:03:01.166Z,31.10
2023-03-10T06:04:01.224Z,31.10
2023-03-10T08:34:10.967Z,36.93
2023-03-10T08:35:11.031Z,37.10
2023-03-10T08:36:11.192Z,37.10
2023-03-10T08:37:11.134Z,37.18
2023-03-10T08:38:11.209Z,37.28
2023-03-10T08:39:11.256Z,37.70
2023-03-10T08:40:11.306Z,37.61
2023-03-10T08:41:11.328Z,37.71
2023-03-10T08:42:11.384Z,37.76
2023-03-10T08:43:11.436Z,37.75
2023-03-10T08:44:11.501Z,37.85
2023-03-10T08:45:11.560Z,37.99
2023-03-10T08:46:11.717Z,37.96
2023-03-10T08:47:11.702Z,38.01
2023-03-10T08:48:11.713Z,38.14
2023-03-10T08:49:11.757Z,38.22
2023-03-10T08:50:11.807Z,38.27
2023-03-10T08:51:15.083Z,38.31
2023-03-10T08:52:11.857Z,38.38
2023-03-10T08:53:11.888Z,38.61
2023-03-10T08:54:11.896Z,38.60
2023-03-10T08:55:11.957Z,38.61
2023-03-10T08:56:11.959Z,38.77
2023-03-10T08:57:11.960Z,38.85
2023-03-10T08:58:11.994Z,39.04
2023-03-10T08:59:12.034Z,39.18
2023-03-10T09:00:12.024Z,39.20
2023-03-10T09:01:12.052Z,39.32
2023-03-10T09:02:12.141Z,39.18
2023-03-10T09:03:15.073Z,39.14
2023-03-10T09:04:13.105Z,39.25
2023-03-10T09:05:12.130Z,39.37
2023-03-10T09:06:12.143Z,39.44
2023-03-10T09:07:12.162Z,39.49
2023-03-10T09:08:12.194Z,39.66
2023-03-10T09:09:12.208Z,39.70
2023-03-10T09:10:12.242Z,39.83
2023-03-10T09:11:12.247Z,39.89
2023-03-10T09:12:12.264Z,40.00
2023-03-10T09:13:14.239Z,40.02
2023-03-10T09:14:12.509Z,40.04
2023-03-10T09:15:12.317Z,39.96
2023-03-10T09:16:12.370Z,40.01
2023-03-10T09:17:12.352Z,39.93
2023-03-10T09:18:12.374Z,35.51
2023-03-10T09:19:12.416Z,31.10
2023-03-10T09:20:12.420Z,30.67
2023-03-10T09:21:12.456Z,28.39
2023-03-10T09:22:12.495Z,27.90
2023-03-10T09:23:12.561Z,29.36
2023-03-10T09:24:12.722Z,30.75
2023-03-10T09:25:12.698Z,31.17
2023-03-10T09:26:12.770Z,32.10
2023-03-10T09:27:12.798Z,32.66
2023-03-10T09:28:12.849Z,33.08
2023-03-10T09:29:12.888Z,33.48
2023-03-10T09:30:13.879Z,33.50
2023-03-10T09:31:14.713Z,33.59
2023-03-10T09:32:13.181Z,33.66
2023-03-10T09:33:13.142Z,33.80
2023-03-10T09:34:13.216Z,33.80
2023-03-10T09:35:13.304Z,33.78
2023-03-10T09:36:13.413Z,33.85
2023-03-10T09:37:13.500Z,33.89
2023-03-10T09:38:13.533Z,33.97
2023-03-10T09:39:13.623Z,34.01
2023-03-10T09:40:13.664Z,34.10
2023-03-10T09:41:13.731Z,34.16
2023-03-10T09:42:14.837Z,34.16
2023-03-10T09:43:13.823Z,34.19
2023-03-10T09:44:13.883Z,34.29
2023-03-10T09:45:13.924Z,34.37
2023-03-10T09:46:14.031Z,34.41
2023-03-10T09:47:14.035Z,34.54
2023-03-10T09:48:14.887Z,34.78
2023-03-10T09:49:14.094Z,34.72
2023-03-10T09:50:14.126Z,34.73
2023-03-10T09:51:14.172Z,34.85
2023-03-10T09:52:16.645Z,34.92
2023-03-10T09:53:14.219Z,35.01
2023-03-10T09:54:14.250Z,35.06
2023-03-10T09:55:14.257Z,35.23
2023-03-10T09:56:14.270Z,35.30
2023-03-10T09:57:14.286Z,35.35
2023-03-10T09:58:14.306Z,35.58
2023-03-10T09:59:15.332Z,35.59
2023-03-10T10:00:14.969Z,35.69
2023-03-10T10:01:14.353Z,35.80
2023-03-10T10:02:14.373Z,35.99
2023-03-10T10:03:14.960Z,35.95
2023-03-10T10:04:14.627Z,36.08
2023-03-10T10:05:17.159Z,36.18
2023-03-10T10:06:14.416Z,36.38
2023-03-10T10:07:14.442Z,36.44
2023-03-10T10:08:14.443Z,36.52
2023-03-10T10:09:15.434Z,36.57
2023-03-10T10:10:14.498Z,36.64
2023-03-10T10:11:14.524Z,36.76
2023-03-10T10:12:15.396Z,36.75
2023-03-10T10:13:14.540Z,36.85
2023-03-10T10:14:22.305Z,37.09
2023-03-10T10:15:15.548Z,37.44
2023-03-10T10:16:28.193Z,37.37
2023-03-10T10:17:15.641Z,37.27
2023-03-10T10:18:24.052Z,37.23
2023-03-10T10:19:16.402Z,37.20
2023-03-10T10:20:14.606Z,37.20
2023-03-10T10:21:14.644Z,37.25
2023-03-10T10:22:14.645Z,37.25
2023-03-10T10:23:14.724Z,37.23
2023-03-10T10:24:14.671Z,37.28
2023-03-10T10:25:14.683Z,37.29
2023-03-10T10:26:14.692Z,37.37
2023-03-10T10:27:14.715Z,37.40
2023-03-10T10:28:15.744Z,37.47
2023-03-10T10:29:14.760Z,37.48
2023-03-10T10:30:14.772Z,37.47
2023-03-10T10:31:14.839Z,37.45
2023-03-10T10:32:14.921Z,37.53
2023-03-10T10:33:14.829Z,37.58
2023-03-10T10:34:17.926Z,37.61
2023-03-10T10:35:14.911Z,37.58
2023-03-10T10:36:14.909Z,37.56
2023-03-10T10:37:16.095Z,37.56
2023-03-10T10:38:14.954Z,37.53
2023-03-10T10:39:14.946Z,37.51
2023-03-10T10:40:14.969Z,37.59
2023-03-10T10:41:14.981Z,37.46
2023-03-10T10:42:15.010Z,37.53
2023-03-10T10:43:15.029Z,37.47
2023-03-10T10:44:15.071Z,37.42
2023-03-10T10:45:15.075Z,37.46
2023-03-10T10:46:15.121Z,37.46
2023-03-10T10:47:15.100Z,37.45
2023-03-10T10:48:15.117Z,37.35
2023-03-10T10:49:15.131Z,37.32
2023-03-10T10:50:17.506Z,37.25
2023-03-10T10:51:15.190Z,37.27
2023-03-10T10:52:15.218Z,37.24
2023-03-10T10:53:15.252Z,37.28
2023-03-10T10:54:15.265Z,37.27
2023-03-10T10:55:15.292Z,37.23
2023-03-10T10:56:15.331Z,37.25
2023-03-10T10:57:15.351Z,37.19
2023-03-10T10:58:15.400Z,37.17
2023-03-10T10:59:15.415Z,37.20
2023-03-10T11:00:15.447Z,37.19
2023-03-10T11:01:15.562Z,37.11
2023-03-10T11:02:15.504Z,37.17
2023-03-10T11:03:15.525Z,37.14
2023-03-10T11:04:17.469Z,37.07
2023-03-10T11:05:15.599Z,37.15
2023-03-10T11:06:15.638Z,37.14
2023-03-10T11:07:15.661Z,37.04
2023-03-10T11:08:15.678Z,37.13
2023-03-10T11:09:15.708Z,37.07
2023-03-10T11:10:15.727Z,37.02
2023-03-10T11:11:15.780Z,36.96
2023-03-10T11:12:15.825Z,36.96
2023-03-10T11:13:15.895Z,36.92
2023-03-10T11:19:16.489Z,32.28
2023-03-10T12:18:20.967Z,37.01
2023-03-10T12:19:21.025Z,36.91
2023-03-10T12:20:21.080Z,36.97
2023-03-10T12:21:21.108Z,37.10
2023-03-10T12:22:21.151Z,37.10
2023-03-10T12:23:21.185Z,37.18
2023-03-10T12:24:21.228Z,37.19
2023-03-10T12:25:21.265Z,37.32
2023-03-10T12:26:21.312Z,37.28
2023-03-10T12:27:21.352Z,37.26
2023-03-10T12:28:21.395Z,37.33
2023-03-10T12:29:21.449Z,37.27
2023-03-10T12:30:21.504Z,37.42
2023-03-10T12:31:21.585Z,37.36
2023-03-10T12:32:21.688Z,37.39
2023-03-10T12:33:21.673Z,37.28
2023-03-10T12:34:21.739Z,36.54
2023-03-10T12:35:21.836Z,36.02
2023-03-10T12:36:21.924Z,35.77
2023-03-10T12:37:21.944Z,36.33
2023-03-10T14:23:30.952Z,35.41
2023-03-10T14:24:31.105Z,35.41
2023-03-10T14:25:31.114Z,35.39
2023-03-10T14:26:31.183Z,35.40
2023-03-10T14:27:31.244Z,35.41
2023-03-10T14:28:31.306Z,35.40
2023-03-10T14:29:31.367Z,35.38
2023-03-10T14:30:31.495Z,35.31
2023-03-10T14:31:31.489Z,35.35
2023-03-10T14:32:31.604Z,35.38
2023-03-10T14:33:31.637Z,35.35
2023-03-10T14:34:31.708Z,35.33
2023-03-10T14:35:31.771Z,35.34
2023-03-10T14:36:31.840Z,35.33
2023-03-10T14:37:31.912Z,35.34
2023-03-10T14:38:31.972Z,35.32
2023-03-10T14:39:32.049Z,35.30
2023-03-10T14:40:32.103Z,35.31
2023-03-10T14:41:32.184Z,35.17
2023-03-10T14:42:32.247Z,35.21
2023-03-10T14:43:32.288Z,35.13
2023-03-10T14:44:32.316Z,35.14
2023-03-10T14:45:32.376Z,35.08
2023-03-10T14:46:32.680Z,35.03
2023-03-10T14:47:32.698Z,35.12
2023-03-10T14:48:32.535Z,35.21
2023-03-10T14:49:32.634Z,35.17
2023-03-10T14:50:32.696Z,35.01
2023-03-10T14:51:36.144Z,35.01
2023-03-10T14:52:32.771Z,35.02
2023-03-10T14:53:32.824Z,34.98
2023-03-10T14:54:32.862Z,34.98
2023-03-10T14:55:32.890Z,35.13
2023-03-10T14:56:32.929Z,35.18
2023-03-10T14:57:32.962Z,35.14
2023-03-10T14:58:32.996Z,35.07
2023-03-10T14:59:33.019Z,35.03
2023-03-10T15:00:33.060Z,35.08
2023-03-10T15:01:33.134Z,35.11
2023-03-10T15:02:33.125Z,35.04
2023-03-10T15:03:33.165Z,35.03
2023-03-10T15:04:33.271Z,35.06
2023-03-10T15:05:47.310Z,35.06
2023-03-10T15:06:34.264Z,35.11
2023-03-10T15:07:33.303Z,35.08
2023-03-10T15:08:33.350Z,35.05
2023-03-10T15:09:33.388Z,35.06
2023-03-10T15:10:33.426Z,35.06
2023-03-10T15:11:37.279Z,35.04
2023-03-10T15:12:33.496Z,35.10
2023-03-10T15:13:33.536Z,35.06
2023-03-10T15:14:33.578Z,35.06
2023-03-10T15:15:33.640Z,35.06
2023-03-10T15:16:33.680Z,35.10
2023-03-10T15:17:33.706Z,35.10
2023-03-10T15:18:33.771Z,35.07
2023-03-10T15:19:33.801Z,35.14
2023-03-10T15:20:33.817Z,35.12
2023-03-10T15:21:33.869Z,35.03
2023-03-10T15:22:33.907Z,35.06
2023-03-10T15:23:33.948Z,35.12
2023-03-10T15:24:33.982Z,35.14
2023-03-10T15:25:34.039Z,35.13
2023-03-10T15:26:34.079Z,35.06
2023-03-10T15:27:34.126Z,35.05
2023-03-10T15:28:35.812Z,35.07
2023-03-10T15:29:34.181Z,35.05
2023-03-10T15:30:34.240Z,35.03
2023-03-10T15:31:34.324Z,35.08
2023-03-10T15:32:34.357Z,35.02
2023-03-10T15:33:34.341Z,35.06
2023-03-10T15:34:34.388Z,35.10
2023-03-10T15:35:34.449Z,35.03
2023-03-10T15:36:34.455Z,35.03
2023-03-10T15:37:34.507Z,35.00
2023-03-10T15:38:34.554Z,35.00
2023-03-10T15:39:36.894Z,35.07
2023-03-10T15:40:34.743Z,35.01
2023-03-10T15:41:34.798Z,35.00
2023-03-10T15:42:34.852Z,35.07
2023-03-10T15:43:34.889Z,35.04
2023-03-10T15:44:34.952Z,35.05
2023-03-10T15:45:35.006Z,35.06
2023-03-10T15:46:35.086Z,35.05
2023-03-10T15:47:35.122Z,35.06
2023-03-10T15:48:35.158Z,35.05
2023-03-10T15:49:35.242Z,35.03
2023-03-10T15:50:35.281Z,35.01
2023-03-10T15:51:35.331Z,34.99
2023-03-10T15:52:35.387Z,35.01
2023-03-10T15:53:35.446Z,35.09
2023-03-10T15:54:35.568Z,35.03
2023-03-10T15:55:35.543Z,35.06
2023-03-10T15:56:35.605Z,35.02
2023-03-10T15:57:35.664Z,35.05
2023-03-10T15:58:35.740Z,35.08
2023-03-10T15:59:35.794Z,35.05
2023-03-10T16:00:35.853Z,35.03
2023-03-10T16:01:36.008Z,35.01
2023-03-10T16:02:35.989Z,35.05
2023-03-10T16:03:36.072Z,35.05
2023-03-10T16:04:36.149Z,34.97
2023-03-10T16:05:36.179Z,34.99
2023-03-10T16:06:36.229Z,35.01
2023-03-10T16:07:36.290Z,35.02
2023-03-10T16:08:36.345Z,35.04
2023-03-10T16:09:36.404Z,35.02
2023-03-10T16:10:36.471Z,35.02
2023-03-10T16:11:36.605Z,34.99
2023-03-10T16:12:36.591Z,35.00
2023-03-10T16:13:36.641Z,35.00
2023-03-10T16:14:36.680Z,35.03
2023-03-10T16:15:36.724Z,35.01
2023-03-10T16:16:36.815Z,35.01
2023-03-10T16:17:36.820Z,34.97
2023-03-10T16:18:36.882Z,34.96
2023-03-10T16:19:36.940Z,34.95
2023-03-10T16:20:36.998Z,34.97
2023-03-10T16:21:37.070Z,34.95
2023-03-10T16:22:37.114Z,34.97
2023-03-10T16:23:37.179Z,34.95
2023-03-10T16:24:37.237Z,35.00
2023-03-10T16:25:37.302Z,34.94
2023-03-10T16:26:37.358Z,34.94
2023-03-10T16:27:37.445Z,34.93
2023-03-10T16:28:37.488Z,34.93
2023-03-10T16:29:37.556Z,34.93
2023-03-10T16:30:37.705Z,35.00
2023-03-10T16:31:37.688Z,34.97
2023-03-10T16:32:37.823Z,34.98
2023-03-10T16:33:37.807Z,34.93
2023-03-10T16:34:37.865Z,35.00
2023-03-10T16:35:37.958Z,35.02
2023-03-10T16:36:38.007Z,34.97
2023-03-10T16:37:38.042Z,34.91
2023-03-10T16:38:38.112Z,34.97
2023-03-10T16:39:38.181Z,34.93
2023-03-10T16:40:38.240Z,34.93
2023-03-10T16:41:38.299Z,34.95
2023-03-10T16:42:38.397Z,34.94
2023-03-10T16:43:38.447Z,34.91
2023-03-10T16:44:38.497Z,34.94
2023-03-10T16:45:38.699Z,34.91
2023-03-10T16:46:38.649Z,34.90
2023-03-10T16:47:38.710Z,34.86
2023-03-10T16:48:38.762Z,34.87
2023-03-10T16:49:38.825Z,34.92
2023-03-10T16:50:38.895Z,34.94
2023-03-10T16:51:38.972Z,34.90
2023-03-10T16:52:39.045Z,34.87
2023-03-10T16:53:39.122Z,34.91
2023-03-10T16:54:39.182Z,34.95
2023-03-10T16:55:39.265Z,34.88
2023-03-10T16:56:39.327Z,34.88
2023-03-10T16:57:39.379Z,34.92
2023-03-10T16:58:39.452Z,34.92
2023-03-10T16:59:39.533Z,34.91
2023-03-10T17:00:39.624Z,34.91
2023-03-10T17:01:39.659Z,34.89
2023-03-10T17:02:39.738Z,34.88
2023-03-10T17:03:39.909Z,34.88
2023-03-10T17:04:39.877Z,34.84
2023-03-10T17:05:40.007Z,34.84
2023-03-10T17:06:40.026Z,34.85
2023-03-10T17:07:53.324Z,34.79
2023-03-10T17:08:41.134Z,34.84
2023-03-10T17:09:40.165Z,34.81
2023-03-10T17:10:40.209Z,34.80
2023-03-10T17:11:40.257Z,34.77
2023-03-10T17:12:40.316Z,34.81
2023-03-10T17:13:40.354Z,34.81
2023-03-10T17:14:40.391Z,34.78
2023-03-10T17:15:40.440Z,34.80
2023-03-10T17:16:40.589Z,34.79
2023-03-10T17:17:40.550Z,34.77
2023-03-10T17:18:41.142Z,34.77
2023-03-10T17:19:40.635Z,34.77
2023-03-10T17:20:40.677Z,34.81
2023-03-10T17:21:40.720Z,34.84
2023-03-10T17:22:40.761Z,34.77
2023-03-10T17:23:40.801Z,34.74
2023-03-10T17:24:40.851Z,34.75
2023-03-10T17:25:40.905Z,34.77
2023-03-10T17:26:40.975Z,34.78
2023-03-10T17:27:42.504Z,34.84
2023-03-10T17:28:41.244Z,34.72
2023-03-10T17:29:41.330Z,34.68
2023-03-10T17:30:41.396Z,34.70
2023-03-10T17:31:41.509Z,34.67
2023-03-10T17:32:41.619Z,34.68
2023-03-10T17:33:42.543Z,34.68
2023-03-10T17:34:41.697Z,34.73
2023-03-10T17:35:41.801Z,34.75
2023-03-10T17:36:41.853Z,34.72
2023-03-10T17:37:41.934Z,34.63
2023-03-10T17:38:42.012Z,34.71
2023-03-10T17:39:42.093Z,34.68
2023-03-10T17:40:42.156Z,34.68
2023-03-10T17:41:42.235Z,34.68
2023-03-10T17:42:42.314Z,34.65
2023-03-10T17:43:42.392Z,34.67
2023-03-10T17:44:42.489Z,34.62
2023-03-10T17:45:42.608Z,34.67
2023-03-10T17:46:42.644Z,34.64
2023-03-10T17:47:42.725Z,34.67
2023-03-10T17:48:42.798Z,34.63
2023-03-10T17:49:42.888Z,34.63
2023-03-10T17:50:42.968Z,34.65
2023-03-10T17:51:43.066Z,34.61
2023-03-10T17:52:43.131Z,34.60
2023-03-10T19:03:48.942Z,33.94
2023-03-10T19:04:49.036Z,33.99
2023-03-10T19:05:49.124Z,34.10
2023-03-10T19:06:49.216Z,34.03
2023-03-10T19:07:49.399Z,34.05
2023-03-10T19:08:50.806Z,34.01
2023-03-10T19:09:49.432Z,33.91
2023-03-10T19:10:49.473Z,33.89
2023-03-10T19:11:49.587Z,33.94
2023-03-10T19:12:49.556Z,33.99
2023-03-10T19:13:49.588Z,34.03
2023-03-10T19:14:49.629Z,33.94
2023-03-10T19:15:49.748Z,33.82
2023-03-10T19:16:49.718Z,33.88
2023-03-10T19:17:49.757Z,33.91
2023-03-10T19:18:49.832Z,33.91
2023-03-10T19:19:49.862Z,33.85
2023-03-10T19:20:49.885Z,34.00
2023-03-10T19:21:49.932Z,33.90
2023-03-10T19:22:49.967Z,33.89
2023-03-10T19:23:50.012Z,33.98
2023-03-10T19:24:50.064Z,33.88
2023-03-10T19:25:50.109Z,33.90
2023-03-10T19:26:50.158Z,33.84
2023-03-10T19:27:50.186Z,33.84
2023-03-10T19:28:50.230Z,33.88
2023-03-10T19:29:50.279Z,33.79
2023-03-10T19:30:50.323Z,33.73
2023-03-10T19:31:50.378Z,33.73
2023-03-10T19:32:50.447Z,33.76
2023-03-10T19:33:50.452Z,33.75
2023-03-10T19:34:50.498Z,33.71
2023-03-10T19:35:50.565Z,33.80
2023-03-10T19:36:50.575Z,33.77
2023-03-10T19:37:50.625Z,33.79
2023-03-10T19:38:50.672Z,33.71
2023-03-10T19:39:50.706Z,33.73
2023-03-10T19:40:50.749Z,33.74
2023-03-10T19:41:50.787Z,33.69
2023-03-10T19:42:50.832Z,33.76
2023-03-10T19:43:50.896Z,33.69
2023-03-10T19:44:50.919Z,33.64
2023-03-10T19:45:50.962Z,33.60
2023-03-10T19:46:51.109Z,33.61
2023-03-10T19:47:51.040Z,33.65
2023-03-10T19:48:51.084Z,33.65
2023-03-10T19:49:51.128Z,33.73
2023-03-10T19:50:51.162Z,33.61
2023-03-10T19:51:51.205Z,33.67
2023-03-10T19:52:51.250Z,33.58
2023-03-10T19:53:51.298Z,33.66
2023-03-10T19:54:51.339Z,33.64
2023-03-10T19:55:51.385Z,33.54
2023-03-10T19:56:51.440Z,33.57
2023-03-10T19:57:51.467Z,33.55
2023-03-10T19:58:51.518Z,33.61
2023-03-10T19:59:51.552Z,33.53
2023-03-10T20:00:51.658Z,33.51
2023-03-10T20:01:51.717Z,33.54
2023-03-10T20:02:51.823Z,33.61
2023-03-10T20:03:51.983Z,33.48
2023-03-10T20:04:52.002Z,33.48
2023-03-10T20:05:52.103Z,33.58
2023-03-10T20:06:52.202Z,33.54
2023-03-10T20:07:52.307Z,33.47
2023-03-10T20:08:52.400Z,33.44
2023-03-10T20:14:52.963Z,33.36
2023-03-10T21:14:58.956Z,32.96
2023-03-10T21:15:59.057Z,32.94
2023-03-10T21:16:59.193Z,32.92
2023-03-10T21:17:59.266Z,32.95
2023-03-10T21:18:59.364Z,32.98
2023-03-10T21:19:59.452Z,33.05
2023-03-10T21:20:59.546Z,33.11
2023-03-10T21:22:01.572Z,32.99
2023-03-10T21:22:59.700Z,33.07
2023-03-10T21:23:59.741Z,32.98
2023-03-10T21:24:59.786Z,33.12
2023-03-10T21:25:59.822Z,33.03
2023-03-10T21:26:59.865Z,33.03
2023-03-10T21:27:59.914Z,32.95
2023-03-10T21:28:59.962Z,32.96
2023-03-10T21:30:00.018Z,32.97
2023-03-10T21:31:00.159Z,32.87
2023-03-10T21:32:00.100Z,32.90
2023-03-10T21:33:00.138Z,33.02
2023-03-10T21:34:00.186Z,32.99
2023-03-10T21:35:00.219Z,32.94
2023-03-10T21:36:00.313Z,33.02
2023-03-10T21:37:00.324Z,33.05
2023-03-10T21:38:00.366Z,33.09
2023-03-10T21:39:00.395Z,33.09
2023-03-10T21:40:00.431Z,33.08
2023-03-10T21:41:00.475Z,33.08
2023-03-10T21:42:00.505Z,33.04
2023-03-10T21:43:02.645Z,33.05
2023-03-10T21:44:00.599Z,33.08
2023-03-10T21:45:00.634Z,33.08
2023-03-10T21:46:00.758Z,33.06
2023-03-10T21:47:00.832Z,32.99
2023-03-10T21:48:00.950Z,32.91
2023-03-10T21:49:01.054Z,32.95
2023-03-10T21:50:01.159Z,32.96
2023-03-10T21:51:01.265Z,32.98
2023-03-10T21:52:01.372Z,32.98
2023-03-10T21:53:01.545Z,32.97
2023-03-10T21:54:01.594Z,32.96
2023-03-10T21:55:01.701Z,32.94
2023-03-10T21:56:01.808Z,32.96
2023-03-10T21:57:01.912Z,32.93
2023-03-10T21:58:02.024Z,32.91
2023-03-10T21:59:02.135Z,33.01
2023-03-10T22:00:02.236Z,32.90
2023-03-10T22:01:02.359Z,32.90
2023-03-10T22:02:02.464Z,32.81
2023-03-10T22:03:02.577Z,32.92
2023-03-10T22:04:02.683Z,32.89
2023-03-10T22:05:02.791Z,32.87
2023-03-10T22:06:02.898Z,32.84
2023-03-10T22:07:03.011Z,32.79
2023-03-10T22:08:03.118Z,32.78
2023-03-10T22:09:03.232Z,32.81
2023-03-10T22:10:03.346Z,32.78
2023-03-10T22:11:03.452Z,32.77
2023-03-10T22:12:03.569Z,32.74
2023-03-10T22:13:03.686Z,32.77
2023-03-10T22:14:03.808Z,32.78
2023-03-10T22:15:03.915Z,32.79
2023-03-10T22:16:04.084Z,32.80
2023-03-10T22:17:04.138Z,32.73
2023-03-10T22:18:04.307Z,32.77
2023-03-10T22:19:04.331Z,32.71
2023-03-10T22:20:04.431Z,32.74
2023-03-10T22:21:04.538Z,32.74
2023-03-10T22:22:04.650Z,32.77
2023-03-10T22:23:04.759Z,32.70
2023-03-10T22:24:04.884Z,32.77
2023-03-10T22:25:05.000Z,32.72
2023-03-10T22:26:05.111Z,32.70
2023-03-10T22:27:05.216Z,32.71
2023-03-10T22:28:05.337Z,32.77
2023-03-10T22:29:05.455Z,32.75
2023-03-10T22:30:05.568Z,32.63
2023-03-10T22:31:05.734Z,32.67
2023-03-10T22:32:05.793Z,32.69
2023-03-10T22:33:05.920Z,32.69
2023-03-10T22:34:06.021Z,32.70
2023-03-10T22:35:06.123Z,32.69
2023-03-10T22:36:06.322Z,32.69
2023-03-10T22:37:06.349Z,32.74
2023-03-10T22:38:06.475Z,32.74
2023-03-10T22:39:06.596Z,32.77
2023-03-10T22:40:06.719Z,32.71
2023-03-10T22:41:06.814Z,32.69
2023-03-10T22:42:06.939Z,32.75
2023-03-10T22:43:07.032Z,32.74
2023-03-10T22:44:07.152Z,32.68
2023-03-10T22:45:07.259Z,32.68
2023-03-10T22:46:07.385Z,32.69
2023-03-10T22:47:07.488Z,32.59
2023-03-10T22:48:07.596Z,32.68
2023-03-10T22:49:07.689Z,32.69
2023-03-10T22:51:07.922Z,32.68
2023-03-10T23:00:08.936Z,32.58
2023-03-10T23:01:09.044Z,32.68
